sensor_id;sensor_type;location;lat;lon;timestamp;P1;durP1;ratioP1;P2;durP2;ratioP2
1436;SDS011;712;51.026;13.792;2023-09-12T00:00:30;174.50;;;160.07;;
1436;SDS011;712;51.026;13.792;2023-09-12T00:02:55;221.32;;;204.77;;
1436;SDS011;712;51.026;13.792;2023-09-12T00:05:20;99.33;;;91.87;;
1436;SDS011;712;51.026;13.792;2023-09-12T00:07:45;79.77;;;73.20;;
1436;SDS011;712;51.026;13.792;2023-09-12T00:10:11;92.23;;;86.00;;
1436;SDS011;712;51.026;13.792;2023-09-12T00:12:36;84.03;;;78.83;;
1436;SDS011;712;51.026;13.792;2023-09-12T00:15:01;154.00;;;143.67;;
1436;SDS011;712;51.026;13.792;2023-09-12T00:17:29;106.32;;;98.22;;
1436;SDS011;712;51.026;13.792;2023-09-12T00:19:54;88.78;;;82.22;;
1436;SDS011;712;51.026;13.792;2023-09-12T00:22:19;129.85;;;120.80;;
1436;SDS011;712;51.026;13.792;2023-09-12T00:24:44;88.10;;;81.67;;
1436;SDS011;712;51.026;13.792;2023-09-12T00:27:09;85.22;;;79.68;;
1436;SDS011;712;51.026;13.792;2023-09-12T00:29:35;70.93;;;65.83;;
1436;SDS011;712;51.026;13.792;2023-09-12T00:32:00;250.95;;;234.00;;
1436;SDS011;712;51.026;13.792;2023-09-12T00:34:25;54.47;;;50.73;;
1436;SDS011;712;51.026;13.792;2023-09-12T00:36:50;94.27;;;88.03;;
1436;SDS011;712;51.026;13.792;2023-09-12T00:39:15;67.72;;;63.10;;
1436;SDS011;712;51.026;13.792;2023-09-12T00:41:40;63.40;;;59.00;;
1436;SDS011;712;51.026;13.792;2023-09-12T00:44:06;133.67;;;124.07;;
1436;SDS011;712;51.026;13.792;2023-09-12T00:46:31;69.50;;;64.47;;
1436;SDS011;712;51.026;13.792;2023-09-12T00:48:57;72.95;;;68.20;;
1436;SDS011;712;51.026;13.792;2023-09-12T00:51:22;82.65;;;76.95;;
1436;SDS011;712;51.026;13.792;2023-09-12T00:53:49;70.40;;;65.18;;
1436;SDS011;712;51.026;13.792;2023-09-12T00:56:14;71.57;;;66.27;;
1436;SDS011;712;51.026;13.792;2023-09-12T00:58:39;90.73;;;84.17;;
1436;SDS011;712;51.026;13.792;2023-09-12T01:01:05;70.57;;;65.68;;
1436;SDS011;712;51.026;13.792;2023-09-12T01:03:30;74.67;;;69.10;;
1436;SDS011;712;51.026;13.792;2023-09-12T01:05:56;77.72;;;71.82;;
1436;SDS011;712;51.026;13.792;2023-09-12T01:08:22;105.65;;;98.53;;
1436;SDS011;712;51.026;13.792;2023-09-12T01:10:47;141.70;;;131.87;;
1436;SDS011;712;51.026;13.792;2023-09-12T01:13:13;77.50;;;72.28;;
1436;SDS011;712;51.026;13.792;2023-09-12T01:15:39;84.35;;;78.78;;
1436;SDS011;712;51.026;13.792;2023-09-12T01:18:04;181.07;;;168.23;;
1436;SDS011;712;51.026;13.792;2023-09-12T01:20:31;95.27;;;89.20;;
1436;SDS011;712;51.026;13.792;2023-09-12T01:23:03;80.75;;;75.30;;
1436;SDS011;712;51.026;13.792;2023-09-12T01:28:04;68.88;;;64.10;;
1436;SDS011;712;51.026;13.792;2023-09-12T01:30:31;156.00;;;145.57;;
1436;SDS011;712;51.026;13.792;2023-09-12T01:32:57;67.80;;;63.00;;
1436;SDS011;712;51.026;13.792;2023-09-12T01:35:22;198.53;;;185.07;;
1436;SDS011;712;51.026;13.792;2023-09-12T01:37:47;175.83;;;164.17;;
1436;SDS011;712;51.026;13.792;2023-09-12T01:40:13;64.85;;;60.28;;
1436;SDS011;712;51.026;13.792;2023-09-12T01:42:40;159.60;;;148.40;;
1436;SDS011;712;51.026;13.792;2023-09-12T01:45:08;132.05;;;122.57;;
1436;SDS011;712;51.026;13.792;2023-09-12T01:47:34;60.00;;;55.72;;
1436;SDS011;712;51.026;13.792;2023-09-12T01:50:00;91.90;;;85.75;;
1436;SDS011;712;51.026;13.792;2023-09-12T01:52:25;72.70;;;67.90;;
1436;SDS011;712;51.026;13.792;2023-09-12T01:54:52;116.65;;;107.63;;
1436;SDS011;712;51.026;13.792;2023-09-12T01:57:18;84.82;;;78.95;;
1436;SDS011;712;51.026;13.792;2023-09-12T01:59:46;98.80;;;90.68;;
1436;SDS011;712;51.026;13.792;2023-09-12T02:02:11;179.25;;;165.18;;
1436;SDS011;712;51.026;13.792;2023-09-12T02:04:36;66.97;;;61.97;;
1436;SDS011;712;51.026;13.792;2023-09-12T02:07:01;61.20;;;57.10;;
1436;SDS011;712;51.026;13.792;2023-09-12T02:09:27;196.67;;;183.10;;
1436;SDS011;712;51.026;13.792;2023-09-12T02:11:52;197.13;;;184.37;;
1436;SDS011;712;51.026;13.792;2023-09-12T02:14:17;134.50;;;125.17;;
1436;SDS011;712;51.026;13.792;2023-09-12T02:16:45;69.95;;;64.93;;
1436;SDS011;712;51.026;13.792;2023-09-12T02:19:10;202.53;;;189.10;;
1436;SDS011;712;51.026;13.792;2023-09-12T02:21:35;57.97;;;53.35;;
1436;SDS011;712;51.026;13.792;2023-09-12T02:24:00;131.80;;;123.00;;
1436;SDS011;712;51.026;13.792;2023-09-12T02:26:26;102.78;;;95.35;;
1436;SDS011;712;51.026;13.792;2023-09-12T02:28:51;50.93;;;47.37;;
1436;SDS011;712;51.026;13.792;2023-09-12T02:31:16;51.35;;;47.70;;
1436;SDS011;712;51.026;13.792;2023-09-12T02:33:42;47.33;;;43.70;;
1436;SDS011;712;51.026;13.792;2023-09-12T02:36:07;46.88;;;43.28;;
1436;SDS011;712;51.026;13.792;2023-09-12T02:38:32;56.63;;;52.40;;
1436;SDS011;712;51.026;13.792;2023-09-12T02:40:57;203.07;;;188.87;;
1436;SDS011;712;51.026;13.792;2023-09-12T02:43:23;100.93;;;93.50;;
1436;SDS011;712;51.026;13.792;2023-09-12T02:45:48;65.13;;;60.88;;
1436;SDS011;712;51.026;13.792;2023-09-12T02:48:13;55.83;;;51.90;;
1436;SDS011;712;51.026;13.792;2023-09-12T02:50:38;69.60;;;64.93;;
1436;SDS011;712;51.026;13.792;2023-09-12T02:53:03;58.55;;;54.50;;
1436;SDS011;712;51.026;13.792;2023-09-12T02:55:29;53.60;;;49.80;;
1436;SDS011;712;51.026;13.792;2023-09-12T02:57:54;68.88;;;63.47;;
1436;SDS011;712;51.026;13.792;2023-09-12T03:00:19;59.97;;;55.90;;
1436;SDS011;712;51.026;13.792;2023-09-12T03:02:44;58.47;;;54.00;;
1436;SDS011;712;51.026;13.792;2023-09-12T03:05:10;65.47;;;60.90;;
1436;SDS011;712;51.026;13.792;2023-09-12T03:07:35;58.37;;;53.60;;
1436;SDS011;712;51.026;13.792;2023-09-12T03:10:00;62.53;;;58.33;;
1436;SDS011;712;51.026;13.792;2023-09-12T03:12:25;84.28;;;78.85;;
1436;SDS011;712;51.026;13.792;2023-09-12T03:14:50;124.80;;;116.23;;
1436;SDS011;712;51.026;13.792;2023-09-12T03:17:15;71.97;;;66.83;;
1436;SDS011;712;51.026;13.792;2023-09-12T03:19:41;92.43;;;86.40;;
1436;SDS011;712;51.026;13.792;2023-09-12T03:22:06;76.60;;;71.20;;
1436;SDS011;712;51.026;13.792;2023-09-12T03:24:31;55.00;;;50.95;;
1436;SDS011;712;51.026;13.792;2023-09-12T03:26:56;214.00;;;199.07;;
1436;SDS011;712;51.026;13.792;2023-09-12T03:29:21;72.90;;;67.63;;
1436;SDS011;712;51.026;13.792;2023-09-12T03:31:47;199.80;;;186.40;;
1436;SDS011;712;51.026;13.792;2023-09-12T03:34:13;153.83;;;143.37;;
1436;SDS011;712;51.026;13.792;2023-09-12T03:36:38;100.95;;;94.22;;
1436;SDS011;712;51.026;13.792;2023-09-12T03:39:03;139.47;;;130.53;;
1436;SDS011;712;51.026;13.792;2023-09-12T03:41:30;115.45;;;107.45;;
1436;SDS011;712;51.026;13.792;2023-09-12T03:43:56;112.47;;;104.63;;
1436;SDS011;712;51.026;13.792;2023-09-12T03:46:21;71.35;;;66.18;;
1436;SDS011;712;51.026;13.792;2023-09-12T03:48:46;79.63;;;74.17;;
1436;SDS011;712;51.026;13.792;2023-09-12T03:51:12;62.17;;;57.90;;
1436;SDS011;712;51.026;13.792;2023-09-12T03:53:37;229.23;;;212.40;;
1436;SDS011;712;51.026;13.792;2023-09-12T03:56:02;71.87;;;66.53;;
1436;SDS011;712;51.026;13.792;2023-09-12T03:58:27;75.07;;;70.03;;
1436;SDS011;712;51.026;13.792;2023-09-12T04:00:52;235.27;;;218.30;;
1436;SDS011;712;51.026;13.792;2023-09-12T04:03:18;189.70;;;177.07;;
1436;SDS011;712;51.026;13.792;2023-09-12T04:05:43;184.93;;;172.17;;
1436;SDS011;712;51.026;13.792;2023-09-12T04:08:08;78.93;;;73.67;;
1436;SDS011;712;51.026;13.792;2023-09-12T04:10:33;60.28;;;56.03;;
1436;SDS011;712;51.026;13.792;2023-09-12T04:12:58;271.53;;;253.30;;
1436;SDS011;712;51.026;13.792;2023-09-12T04:15:23;104.43;;;97.07;;
1436;SDS011;712;51.026;13.792;2023-09-12T04:17:49;162.60;;;151.67;;
1436;SDS011;712;51.026;13.792;2023-09-12T04:20:14;215.50;;;201.10;;
1436;SDS011;712;51.026;13.792;2023-09-12T04:22:40;152.52;;;142.18;;
1436;SDS011;712;51.026;13.792;2023-09-12T04:25:05;134.40;;;125.03;;
1436;SDS011;712;51.026;13.792;2023-09-12T04:27:31;130.65;;;122.25;;
1436;SDS011;712;51.026;13.792;2023-09-12T04:29:56;96.87;;;90.60;;
1436;SDS011;712;51.026;13.792;2023-09-12T04:32:21;62.28;;;58.05;;
1436;SDS011;712;51.026;13.792;2023-09-12T04:34:48;111.15;;;104.35;;
1436;SDS011;712;51.026;13.792;2023-09-12T04:37:13;115.65;;;107.93;;
1436;SDS011;712;51.026;13.792;2023-09-12T04:39:38;55.03;;;51.23;;
1436;SDS011;712;51.026;13.792;2023-09-12T04:42:04;77.30;;;72.03;;
1436;SDS011;712;51.026;13.792;2023-09-12T04:44:30;128.80;;;119.88;;
1436;SDS011;712;51.026;13.792;2023-09-12T04:46:55;50.20;;;46.85;;
1436;SDS011;712;51.026;13.792;2023-09-12T04:49:21;56.25;;;51.97;;
1436;SDS011;712;51.026;13.792;2023-09-12T04:51:46;130.90;;;122.07;;
1436;SDS011;712;51.026;13.792;2023-09-12T04:54:11;43.45;;;40.20;;
1436;SDS011;712;51.026;13.792;2023-09-12T04:56:36;120.27;;;112.10;;
1436;SDS011;712;51.026;13.792;2023-09-12T04:59:01;109.03;;;102.03;;
1436;SDS011;712;51.026;13.792;2023-09-12T05:01:27;99.35;;;91.97;;
1436;SDS011;712;51.026;13.792;2023-09-12T05:03:52;126.37;;;117.83;;
1436;SDS011;712;51.026;13.792;2023-09-12T05:06:17;80.20;;;74.80;;
1436;SDS011;712;51.026;13.792;2023-09-12T05:08:42;56.37;;;52.30;;
1436;SDS011;712;51.026;13.792;2023-09-12T05:11:08;78.10;;;72.82;;
1436;SDS011;712;51.026;13.792;2023-09-12T05:13:33;114.47;;;106.47;;
1436;SDS011;712;51.026;13.792;2023-09-12T05:15:58;50.73;;;47.13;;
1436;SDS011;712;51.026;13.792;2023-09-12T05:18:24;170.25;;;158.23;;
1436;SDS011;712;51.026;13.792;2023-09-12T05:20:49;41.57;;;38.33;;
1436;SDS011;712;51.026;13.792;2023-09-12T05:23:14;88.18;;;81.88;;
1436;SDS011;712;51.026;13.792;2023-09-12T05:25:39;63.77;;;59.33;;
1436;SDS011;712;51.026;13.792;2023-09-12T05:28:04;92.23;;;85.53;;
1436;SDS011;712;51.026;13.792;2023-09-12T05:30:30;113.47;;;104.80;;
1436;SDS011;712;51.026;13.792;2023-09-12T05:32:55;67.72;;;63.35;;
1436;SDS011;712;51.026;13.792;2023-09-12T05:35:20;99.23;;;91.60;;
1436;SDS011;712;51.026;13.792;2023-09-12T05:37:46;95.83;;;88.80;;
1436;SDS011;712;51.026;13.792;2023-09-12T05:40:11;73.10;;;68.40;;
1436;SDS011;712;51.026;13.792;2023-09-12T05:42:36;99.43;;;92.47;;
1436;SDS011;712;51.026;13.792;2023-09-12T05:45:01;62.30;;;58.07;;
1436;SDS011;712;51.026;13.792;2023-09-12T05:47:26;135.00;;;125.75;;
1436;SDS011;712;51.026;13.792;2023-09-12T05:49:52;224.03;;;208.23;;
1436;SDS011;712;51.026;13.792;2023-09-12T05:52:17;68.75;;;64.05;;
1436;SDS011;712;51.026;13.792;2023-09-12T05:54:42;64.67;;;60.17;;
1436;SDS011;712;51.026;13.792;2023-09-12T05:57:07;151.57;;;141.98;;
1436;SDS011;712;51.026;13.792;2023-09-12T05:59:36;94.13;;;87.72;;
1436;SDS011;712;51.026;13.792;2023-09-12T06:02:01;120.20;;;111.70;;
1436;SDS011;712;51.026;13.792;2023-09-12T06:04:26;58.97;;;55.10;;
1436;SDS011;712;51.026;13.792;2023-09-12T06:06:51;80.93;;;75.43;;
1436;SDS011;712;51.026;13.792;2023-09-12T06:09:17;123.77;;;114.73;;
1436;SDS011;712;51.026;13.792;2023-09-12T06:11:42;130.52;;;121.63;;
1436;SDS011;712;51.026;13.792;2023-09-12T06:14:07;223.73;;;208.67;;
1436;SDS011;712;51.026;13.792;2023-09-12T06:16:32;142.60;;;133.00;;
1436;SDS011;712;51.026;13.792;2023-09-12T06:18:57;179.27;;;165.67;;
1436;SDS011;712;51.026;13.792;2023-09-12T06:21:22;120.30;;;112.37;;
1436;SDS011;712;51.026;13.792;2023-09-12T06:23:48;237.90;;;221.07;;
1436;SDS011;712;51.026;13.792;2023-09-12T06:26:14;92.90;;;86.43;;
1436;SDS011;712;51.026;13.792;2023-09-12T06:28:39;117.85;;;109.70;;
1436;SDS011;712;51.026;13.792;2023-09-12T06:31:07;176.27;;;165.48;;
1436;SDS011;712;51.026;13.792;2023-09-12T06:33:32;130.75;;;121.57;;
1436;SDS011;712;51.026;13.792;2023-09-12T06:35:57;159.73;;;148.17;;
1436;SDS011;712;51.026;13.792;2023-09-12T06:38:22;100.57;;;93.93;;
1436;SDS011;712;51.026;13.792;2023-09-12T06:40:48;100.88;;;94.07;;
1436;SDS011;712;51.026;13.792;2023-09-12T06:43:13;85.00;;;79.30;;
1436;SDS011;712;51.026;13.792;2023-09-12T06:45:42;107.50;;;100.22;;
1436;SDS011;712;51.026;13.792;2023-09-12T06:48:07;113.10;;;105.75;;
1436;SDS011;712;51.026;13.792;2023-09-12T06:50:33;154.93;;;142.13;;
1436;SDS011;712;51.026;13.792;2023-09-12T06:52:58;97.43;;;91.40;;
1436;SDS011;712;51.026;13.792;2023-09-12T06:55:23;101.88;;;95.50;;
1436;SDS011;712;51.026;13.792;2023-09-12T06:57:49;137.27;;;128.05;;
1436;SDS011;712;51.026;13.792;2023-09-12T07:00:14;106.47;;;98.97;;
1436;SDS011;712;51.026;13.792;2023-09-12T07:02:39;204.32;;;189.30;;
1436;SDS011;712;51.026;13.792;2023-09-12T07:05:05;88.03;;;82.47;;
1436;SDS011;712;51.026;13.792;2023-09-12T07:07:30;102.28;;;95.00;;
1436;SDS011;712;51.026;13.792;2023-09-12T07:09:55;168.55;;;156.63;;
1436;SDS011;712;51.026;13.792;2023-09-12T07:12:21;170.73;;;158.77;;
1436;SDS011;712;51.026;13.792;2023-09-12T07:14:46;200.23;;;187.00;;
1436;SDS011;712;51.026;13.792;2023-09-12T07:17:11;197.53;;;182.53;;
1436;SDS011;712;51.026;13.792;2023-09-12T07:19:36;88.57;;;82.97;;
1436;SDS011;712;51.026;13.792;2023-09-12T07:22:01;143.93;;;133.90;;
1436;SDS011;712;51.026;13.792;2023-09-12T07:24:27;135.87;;;126.60;;
1436;SDS011;712;51.026;13.792;2023-09-12T07:26:52;113.47;;;105.97;;
1436;SDS011;712;51.026;13.792;2023-09-12T07:29:17;127.00;;;117.90;;
1436;SDS011;712;51.026;13.792;2023-09-12T07:31:42;138.33;;;129.10;;
1436;SDS011;712;51.026;13.792;2023-09-12T07:34:08;274.23;;;251.60;;
1436;SDS011;712;51.026;13.792;2023-09-12T07:36:33;262.10;;;241.65;;
1436;SDS011;712;51.026;13.792;2023-09-12T07:38:58;272.23;;;251.83;;
1436;SDS011;712;51.026;13.792;2023-09-12T07:41:23;208.50;;;193.17;;
1436;SDS011;712;51.026;13.792;2023-09-12T07:43:48;164.27;;;150.90;;
1436;SDS011;712;51.026;13.792;2023-09-12T07:46:14;229.43;;;211.13;;
1436;SDS011;712;51.026;13.792;2023-09-12T07:48:39;187.40;;;176.07;;
1436;SDS011;712;51.026;13.792;2023-09-12T07:51:14;162.20;;;150.20;;
1436;SDS011;712;51.026;13.792;2023-09-12T07:53:39;222.23;;;206.73;;
1436;SDS011;712;51.026;13.792;2023-09-12T07:56:05;166.88;;;155.18;;
1436;SDS011;712;51.026;13.792;2023-09-12T07:58:30;280.00;;;258.73;;
1436;SDS011;712;51.026;13.792;2023-09-12T08:00:55;305.50;;;280.02;;
1436;SDS011;712;51.026;13.792;2023-09-12T08:03:20;192.30;;;176.97;;
1436;SDS011;712;51.026;13.792;2023-09-12T08:05:54;205.97;;;190.83;;
1436;SDS011;712;51.026;13.792;2023-09-12T08:08:19;159.48;;;147.93;;
1436;SDS011;712;51.026;13.792;2023-09-12T08:10:44;171.73;;;160.43;;
1436;SDS011;712;51.026;13.792;2023-09-12T08:13:11;137.15;;;128.18;;
1436;SDS011;712;51.026;13.792;2023-09-12T08:15:36;192.80;;;178.70;;
1436;SDS011;712;51.026;13.792;2023-09-12T08:18:01;254.75;;;233.35;;
1436;SDS011;712;51.026;13.792;2023-09-12T08:20:26;315.63;;;293.40;;
1436;SDS011;712;51.026;13.792;2023-09-12T08:22:51;174.67;;;162.33;;
1436;SDS011;712;51.026;13.792;2023-09-12T08:25:17;172.00;;;159.53;;
1436;SDS011;712;51.026;13.792;2023-09-12T08:27:42;285.38;;;263.88;;
1436;SDS011;712;51.026;13.792;2023-09-12T08:30:11;271.92;;;250.38;;
1436;SDS011;712;51.026;13.792;2023-09-12T08:32:39;242.13;;;224.35;;
1436;SDS011;712;51.026;13.792;2023-09-12T08:35:09;214.55;;;196.55;;
1436;SDS011;712;51.026;13.792;2023-09-12T08:37:34;161.50;;;149.88;;
1436;SDS011;712;51.026;13.792;2023-09-12T08:39:59;164.00;;;153.33;;
1436;SDS011;712;51.026;13.792;2023-09-12T08:42:25;210.18;;;193.10;;
1436;SDS011;712;51.026;13.792;2023-09-12T08:44:52;262.58;;;242.65;;
1436;SDS011;712;51.026;13.792;2023-09-12T08:47:17;269.90;;;248.23;;
1436;SDS011;712;51.026;13.792;2023-09-12T08:49:44;230.25;;;212.73;;
1436;SDS011;712;51.026;13.792;2023-09-12T08:52:09;189.30;;;175.47;;
1436;SDS011;712;51.026;13.792;2023-09-12T08:54:34;187.07;;;173.47;;
1436;SDS011;712;51.026;13.792;2023-09-12T08:57:01;255.15;;;235.70;;
1436;SDS011;712;51.026;13.792;2023-09-12T08:59:27;234.02;;;215.38;;
1436;SDS011;712;51.026;13.792;2023-09-12T09:01:52;250.13;;;226.98;;
1436;SDS011;712;51.026;13.792;2023-09-12T09:04:19;248.82;;;230.48;;
1436;SDS011;712;51.026;13.792;2023-09-12T09:06:45;188.57;;;175.13;;
1436;SDS011;712;51.026;13.792;2023-09-12T09:09:10;281.48;;;256.77;;
1436;SDS011;712;51.026;13.792;2023-09-12T09:11:35;261.97;;;242.80;;
1436;SDS011;712;51.026;13.792;2023-09-12T09:14:03;410.27;;;376.17;;
1436;SDS011;712;51.026;13.792;2023-09-12T09:16:29;374.98;;;344.05;;
1436;SDS011;712;51.026;13.792;2023-09-12T09:19:01;296.13;;;273.08;;
1436;SDS011;712;51.026;13.792;2023-09-12T09:21:27;304.08;;;281.73;;
1436;SDS011;712;51.026;13.792;2023-09-12T09:23:55;308.95;;;283.42;;
1436;SDS011;712;51.026;13.792;2023-09-12T09:26:20;287.58;;;262.63;;
1436;SDS011;712;51.026;13.792;2023-09-12T09:31:11;270.98;;;251.07;;
1436;SDS011;712;51.026;13.792;2023-09-12T09:33:36;327.83;;;305.95;;
1436;SDS011;712;51.026;13.792;2023-09-12T09:36:02;344.30;;;316.30;;
1436;SDS011;712;51.026;13.792;2023-09-12T09:38:28;256.27;;;237.02;;
1436;SDS011;712;51.026;13.792;2023-09-12T09:43:22;382.98;;;353.25;;
1436;SDS011;712;51.026;13.792;2023-09-12T09:45:47;251.75;;;233.20;;
1436;SDS011;712;51.026;13.792;2023-09-12T09:48:22;252.15;;;232.68;;
1436;SDS011;712;51.026;13.792;2023-09-12T09:50:48;309.40;;;287.90;;
1436;SDS011;712;51.026;13.792;2023-09-12T09:53:13;301.00;;;278.60;;
1436;SDS011;712;51.026;13.792;2023-09-12T09:55:38;466.37;;;427.57;;
1436;SDS011;712;51.026;13.792;2023-09-12T10:00:29;244.60;;;227.80;;
1436;SDS011;712;51.026;13.792;2023-09-12T10:02:57;278.40;;;257.42;;
1436;SDS011;712;51.026;13.792;2023-09-12T10:05:23;289.35;;;267.55;;
1436;SDS011;712;51.026;13.792;2023-09-12T10:10:14;350.48;;;322.85;;
1436;SDS011;712;51.026;13.792;2023-09-12T10:12:51;313.58;;;291.52;;
1436;SDS011;712;51.026;13.792;2023-09-12T10:15:20;331.88;;;302.70;;
1436;SDS011;712;51.026;13.792;2023-09-12T10:17:49;327.67;;;304.02;;
1436;SDS011;712;51.026;13.792;2023-09-12T10:20:16;346.02;;;321.10;;
1436;SDS011;712;51.026;13.792;2023-09-12T10:22:48;318.52;;;295.02;;
1436;SDS011;712;51.026;13.792;2023-09-12T10:25:16;378.45;;;349.98;;
1436;SDS011;712;51.026;13.792;2023-09-12T10:30:07;373.83;;;344.88;;
1436;SDS011;712;51.026;13.792;2023-09-12T10:34:58;331.40;;;304.80;;
1436;SDS011;712;51.026;13.792;2023-09-12T10:39:49;328.67;;;303.35;;
1436;SDS011;712;51.026;13.792;2023-09-12T10:44:39;478.87;;;442.40;;
1436;SDS011;712;51.026;13.792;2023-09-12T10:47:04;429.53;;;394.00;;
1436;SDS011;712;51.026;13.792;2023-09-12T10:49:30;425.90;;;390.90;;
1436;SDS011;712;51.026;13.792;2023-09-12T10:54:39;288.40;;;268.13;;
1436;SDS011;712;51.026;13.792;2023-09-12T10:57:08;345.08;;;318.42;;
1436;SDS011;712;51.026;13.792;2023-09-12T10:59:34;365.63;;;337.63;;
1436;SDS011;712;51.026;13.792;2023-09-12T11:02:47;372.85;;;343.70;;
1436;SDS011;712;51.026;13.792;2023-09-12T11:04:47;466.80;;;428.48;;
1436;SDS011;712;51.026;13.792;2023-09-12T11:09:38;381.85;;;351.25;;
1436;SDS011;712;51.026;13.792;2023-09-12T11:14:30;368.17;;;340.33;;
1436;SDS011;712;51.026;13.792;2023-09-12T11:19:21;534.72;;;491.08;;
1436;SDS011;712;51.026;13.792;2023-09-12T11:21:51;382.80;;;352.27;;
1436;SDS011;712;51.026;13.792;2023-09-12T11:24:17;345.55;;;318.35;;
1436;SDS011;712;51.026;13.792;2023-09-12T11:29:11;453.20;;;420.57;;
1436;SDS011;712;51.026;13.792;2023-09-12T11:31:37;648.47;;;594.00;;
1436;SDS011;712;51.026;13.792;2023-09-12T11:34:08;439.65;;;405.73;;
1436;SDS011;712;51.026;13.792;2023-09-12T11:36:37;451.48;;;415.05;;
1436;SDS011;712;51.026;13.792;2023-09-12T11:39:02;411.35;;;378.77;;
1436;SDS011;712;51.026;13.792;2023-09-12T11:41:46;470.83;;;434.25;;
1436;SDS011;712;51.026;13.792;2023-09-12T11:46:36;331.10;;;306.20;;
1436;SDS011;712;51.026;13.792;2023-09-12T11:49:02;428.42;;;385.05;;
1436;SDS011;712;51.026;13.792;2023-09-12T11:53:54;376.60;;;348.50;;
1436;SDS011;712;51.026;13.792;2023-09-12T11:58:45;499.38;;;459.70;;
1436;SDS011;712;51.026;13.792;2023-09-12T12:03:36;548.28;;;501.90;;
1436;SDS011;712;51.026;13.792;2023-09-12T12:08:26;536.88;;;493.33;;
1436;SDS011;712;51.026;13.792;2023-09-12T12:13:17;577.65;;;525.40;;
1436;SDS011;712;51.026;13.792;2023-09-12T12:18:07;557.67;;;512.15;;
1436;SDS011;712;51.026;13.792;2023-09-12T12:20:32;474.50;;;435.40;;
1436;SDS011;712;51.026;13.792;2023-09-12T12:22:58;503.80;;;463.03;;
1436;SDS011;712;51.026;13.792;2023-09-12T12:25:24;417.70;;;385.77;;
1436;SDS011;712;51.026;13.792;2023-09-12T12:27:49;372.08;;;344.52;;
1436;SDS011;712;51.026;13.792;2023-09-12T12:32:40;427.47;;;392.37;;
1436;SDS011;712;51.026;13.792;2023-09-12T12:35:06;435.45;;;405.67;;
1436;SDS011;712;51.026;13.792;2023-09-12T12:37:32;475.00;;;437.85;;
1436;SDS011;712;51.026;13.792;2023-09-12T12:39:58;500.45;;;453.17;;
1436;SDS011;712;51.026;13.792;2023-09-12T12:42:23;447.80;;;410.48;;
1436;SDS011;712;51.026;13.792;2023-09-12T12:44:55;430.70;;;397.15;;
1436;SDS011;712;51.026;13.792;2023-09-12T12:47:21;450.55;;;413.55;;
1436;SDS011;712;51.026;13.792;2023-09-12T12:49:49;424.25;;;391.25;;
1436;SDS011;712;51.026;13.792;2023-09-12T12:52:15;381.13;;;352.15;;
1436;SDS011;712;51.026;13.792;2023-09-12T12:54:41;574.83;;;523.77;;
1436;SDS011;712;51.026;13.792;2023-09-12T12:57:06;470.63;;;432.08;;
1436;SDS011;712;51.026;13.792;2023-09-12T12:59:37;442.13;;;404.35;;
1436;SDS011;712;51.026;13.792;2023-09-12T13:02:03;407.42;;;376.92;;
1436;SDS011;712;51.026;13.792;2023-09-12T13:04:28;413.38;;;382.52;;
1436;SDS011;712;51.026;13.792;2023-09-12T13:06:59;394.80;;;364.58;;
1436;SDS011;712;51.026;13.792;2023-09-12T13:09:25;495.60;;;456.80;;
1436;SDS011;712;51.026;13.792;2023-09-12T13:11:50;470.87;;;435.07;;
1436;SDS011;712;51.026;13.792;2023-09-12T13:14:15;418.83;;;387.17;;
1436;SDS011;712;51.026;13.792;2023-09-12T13:16:40;502.67;;;458.57;;
1436;SDS011;712;51.026;13.792;2023-09-12T13:19:06;413.90;;;380.83;;
1436;SDS011;712;51.026;13.792;2023-09-12T13:21:31;437.63;;;405.00;;
1436;SDS011;712;51.026;13.792;2023-09-12T13:23:57;538.13;;;488.48;;
1436;SDS011;712;51.026;13.792;2023-09-12T13:26:22;523.40;;;485.50;;
1436;SDS011;712;51.026;13.792;2023-09-12T13:28:48;514.93;;;476.80;;
1436;SDS011;712;51.026;13.792;2023-09-12T13:31:13;500.40;;;463.30;;
1436;SDS011;712;51.026;13.792;2023-09-12T13:33:38;411.37;;;378.83;;
1436;SDS011;712;51.026;13.792;2023-09-12T13:36:03;422.50;;;391.83;;
1436;SDS011;712;51.026;13.792;2023-09-12T13:38:28;520.97;;;477.95;;
1436;SDS011;712;51.026;13.792;2023-09-12T13:40:54;511.97;;;471.50;;
1436;SDS011;712;51.026;13.792;2023-09-12T13:43:19;456.23;;;422.35;;
1436;SDS011;712;51.026;13.792;2023-09-12T13:45:44;420.17;;;388.25;;
1436;SDS011;712;51.026;13.792;2023-09-12T13:48:10;577.77;;;535.03;;
1436;SDS011;712;51.026;13.792;2023-09-12T13:50:37;446.85;;;411.63;;
1436;SDS011;712;51.026;13.792;2023-09-12T13:53:02;469.20;;;435.37;;
1436;SDS011;712;51.026;13.792;2023-09-12T13:55:34;443.67;;;409.63;;
1436;SDS011;712;51.026;13.792;2023-09-12T13:58:00;440.33;;;408.23;;
1436;SDS011;712;51.026;13.792;2023-09-12T14:00:26;470.77;;;437.48;;
1436;SDS011;712;51.026;13.792;2023-09-12T14:02:51;497.53;;;455.70;;
1436;SDS011;712;51.026;13.792;2023-09-12T14:05:16;431.80;;;395.13;;
1436;SDS011;712;51.026;13.792;2023-09-12T14:07:41;497.77;;;460.60;;
1436;SDS011;712;51.026;13.792;2023-09-12T14:10:07;416.33;;;383.57;;
1436;SDS011;712;51.026;13.792;2023-09-12T14:12:32;544.95;;;503.85;;
1436;SDS011;712;51.026;13.792;2023-09-12T14:14:57;563.67;;;512.50;;
1436;SDS011;712;51.026;13.792;2023-09-12T14:17:22;450.90;;;415.47;;
1436;SDS011;712;51.026;13.792;2023-09-12T14:19:47;452.13;;;417.80;;
1436;SDS011;712;51.026;13.792;2023-09-12T14:22:13;667.17;;;611.47;;
1436;SDS011;712;51.026;13.792;2023-09-12T14:24:38;585.00;;;540.40;;
1436;SDS011;712;51.026;13.792;2023-09-12T14:27:04;457.53;;;416.97;;
1436;SDS011;712;51.026;13.792;2023-09-12T14:29:29;632.00;;;574.30;;
1436;SDS011;712;51.026;13.792;2023-09-12T14:31:55;464.52;;;429.67;;
1436;SDS011;712;51.026;13.792;2023-09-12T14:34:26;523.85;;;483.95;;
1436;SDS011;712;51.026;13.792;2023-09-12T14:36:57;558.05;;;512.17;;
1436;SDS011;712;51.026;13.792;2023-09-12T14:39:22;516.72;;;466.25;;
1436;SDS011;712;51.026;13.792;2023-09-12T14:41:48;481.85;;;438.67;;
1436;SDS011;712;51.026;13.792;2023-09-12T14:44:17;505.77;;;468.38;;
1436;SDS011;712;51.026;13.792;2023-09-12T14:46:42;450.63;;;415.38;;
1436;SDS011;712;51.026;13.792;2023-09-12T14:49:08;724.22;;;663.80;;
1436;SDS011;712;51.026;13.792;2023-09-12T14:51:35;632.25;;;582.38;;
1436;SDS011;712;51.026;13.792;2023-09-12T14:54:01;554.40;;;510.73;;
1436;SDS011;712;51.026;13.792;2023-09-12T14:56:26;561.22;;;517.50;;
1436;SDS011;712;51.026;13.792;2023-09-12T14:58:51;549.60;;;505.63;;
1436;SDS011;712;51.026;13.792;2023-09-12T15:01:16;476.30;;;441.90;;
1436;SDS011;712;51.026;13.792;2023-09-12T15:03:41;522.67;;;481.00;;
1436;SDS011;712;51.026;13.792;2023-09-12T15:06:07;571.90;;;526.57;;
1436;SDS011;712;51.026;13.792;2023-09-12T15:08:32;546.17;;;501.57;;
1436;SDS011;712;51.026;13.792;2023-09-12T15:10:57;497.60;;;458.87;;
1436;SDS011;712;51.026;13.792;2023-09-12T15:13:22;480.07;;;443.10;;